Time;durP1;ratioP1;P1;durP2;ratioP2;P2;SDS_P1;SDS_P2;PMS_P1;PMS_P2;Temp;Humidity;BMP_temperature;BMP_pressure;BME280_temperature;BME280_humidity;BME280_pressure;Samples;Min_cycle;Max_cycle;Signal;HPM_P1;HPM_P2
2023/09/04 00:00:10;;;;;;;1.38;1.27;;;;;;;;;;5028165;28;20446;-58
2023/09/04 00:02:36;;;;;;;1.13;1.02;;;;;;;;;;5024354;28;20044;-58
2023/09/04 00:05:02;;;;;;;1.60;1.50;;;;;;;;;;5026713;28;20041;-58
2023/09/04 00:07:28;;;;;;;1.60;1.50;;;;;;;;;;5027125;28;20096;-58
2023/09/04 00:09:54;;;;;;;1.45;1.35;;;;;;;;;;5027291;28;20115;-59
2023/09/04 00:12:21;;;;;;;1.67;1.58;;;;;;;;;;5024885;28;20037;-58
2023/09/04 00:14:46;;;;;;;1.40;1.30;;;;;;;;;;5026369;28;20079;-58
2023/09/04 00:17:12;;;;;;;1.35;1.25;;;;;;;;;;5025504;28;20041;-58
2023/09/04 00:19:39;;;;;;;1.27;1.20;;;;;;;;;;5026560;28;20037;-59
2023/09/04 00:22:05;;;;;;;1.20;1.10;;;;;;;;;;5028173;28;20033;-58
2023/09/04 00:24:31;;;;;;;1.48;1.38;;;;;;;;;;5026939;28;20049;-58
2023/09/04 00:26:57;;;;;;;1.30;1.20;;;;;;;;;;5026567;28;20049;-57
2023/09/04 00:29:23;;;;;;;1.52;1.42;;;;;;;;;;5027524;28;20374;-58
2023/09/04 00:31:49;;;;;;;1.70;1.60;;;;;;;;;;5026467;28;20053;-58
2023/09/04 00:34:15;;;;;;;1.60;1.50;;;;;;;;;;5026646;28;20077;-58
2023/09/04 00:36:41;;;;;;;1.95;1.83;;;;;;;;;;5026226;28;20041;-58
2023/09/04 00:39:07;;;;;;;1.65;1.55;;;;;;;;;;5026728;28;20543;-58
2023/09/04 00:41:33;;;;;;;1.80;1.70;;;;;;;;;;5026441;28;20037;-58
2023/09/04 00:43:59;;;;;;;1.73;1.63;;;;;;;;;;5027083;28;20044;-58
2023/09/04 00:46:26;;;;;;;1.55;1.45;;;;;;;;;;5026393;28;20095;-58
2023/09/04 00:48:52;;;;;;;1.40;1.30;;;;;;;;;;5026616;28;20505;-58
2023/09/04 00:51:18;;;;;;;1.55;1.45;;;;;;;;;;5027234;28;20079;-58
2023/09/04 00:53:44;;;;;;;1.40;1.30;;;;;;;;;;5024765;28;20049;-58
2023/09/04 00:56:12;;;;;;;1.50;1.40;;;;;;;;;;5026414;28;20042;-57
2023/09/04 00:58:38;;;;;;;1.17;1.13;;;;;;;;;;5027239;28;20049;-58
2023/09/04 01:01:05;;;;;;;1.17;1.17;;;;;;;;;;5025703;28;20048;-58
2023/09/04 01:03:31;;;;;;;1.50;1.40;;;;;;;;;;5026143;28;20485;-58
2023/09/04 01:05:58;;;;;;;1.23;1.13;;;;;;;;;;5026732;28;20128;-58
2023/09/04 01:08:24;;;;;;;1.00;0.90;;;;;;;;;;5025028;28;20056;-58
2023/09/04 01:10:53;;;;;;;0.85;0.85;;;;;;;;;;5025471;28;20390;-58
2023/09/04 01:13:22;;;;;;;0.90;0.90;;;;;;;;;;5026757;28;20056;-58
2023/09/04 01:15:49;;;;;;;1.30;1.02;;;;;;;;;;5025718;28;20105;-58
2023/09/04 01:18:15;;;;;;;0.93;0.90;;;;;;;;;;5026121;28;20044;-57
2023/09/04 01:20:41;;;;;;;0.75;0.75;;;;;;;;;;5025686;28;20569;-57
2023/09/04 01:23:08;;;;;;;0.82;0.63;;;;;;;;;;5024993;28;20060;-58
2023/09/04 01:25:34;;;;;;;1.42;1.08;;;;;;;;;;5026117;28;20037;-58
2023/09/04 01:28:21;;;;;;;0.80;0.80;;;;;;;;;;5025711;28;20041;-58
2023/09/04 01:30:52;;;;;;;0.80;0.80;;;;;;;;;;5023933;28;20048;-58
2023/09/04 01:33:20;;;;;;;0.85;0.85;;;;;;;;;;5023848;28;20056;-58
2023/09/04 01:35:49;;;;;;;0.80;0.80;;;;;;;;;;5024394;28;20030;-57
2023/09/04 01:38:15;;;;;;;0.77;0.70;;;;;;;;;;5023664;28;20046;-58
2023/09/04 01:40:42;;;;;;;0.77;0.77;;;;;;;;;;5026404;28;20053;-58
2023/09/04 01:43:08;;;;;;;0.90;0.90;;;;;;;;;;5025055;28;20103;-58
2023/09/04 01:45:34;;;;;;;1.02;1.02;;;;;;;;;;5026410;28;20049;-57
2023/09/04 01:48:00;;;;;;;1.00;1.00;;;;;;;;;;5024733;28;20058;-58
2023/09/04 01:50:26;;;;;;;0.90;0.90;;;;;;;;;;5025368;28;20572;-58
2023/09/04 01:52:52;;;;;;;0.70;0.70;;;;;;;;;;5025610;28;20053;-58
2023/09/04 01:55:19;;;;;;;1.17;1.08;;;;;;;;;;5026047;28;20084;-58
2023/09/04 01:57:45;;;;;;;0.90;0.90;;;;;;;;;;5025168;28;20045;-58
2023/09/04 02:00:11;;;;;;;1.02;1.00;;;;;;;;;;5026313;28;20103;-58
2023/09/04 02:02:37;;;;;;;0.93;0.93;;;;;;;;;;5025511;28;20067;-59
2023/09/04 02:05:03;;;;;;;0.90;0.90;;;;;;;;;;5023820;28;20469;-58
2023/09/04 02:07:29;;;;;;;1.00;0.90;;;;;;;;;;5026138;28;20440;-58
2023/09/04 02:09:55;;;;;;;1.08;1.08;;;;;;;;;;5025314;28;20481;-58
2023/09/04 02:12:21;;;;;;;0.80;0.80;;;;;;;;;;5025775;28;20033;-58
2023/09/04 02:14:47;;;;;;;0.77;0.77;;;;;;;;;;5024748;28;20045;-58
2023/09/04 02:17:13;;;;;;;1.13;1.02;;;;;;;;;;5023550;28;20100;-58
2023/09/04 02:19:39;;;;;;;0.65;0.65;;;;;;;;;;5024855;28;20513;-58
2023/09/04 02:22:05;;;;;;;0.80;0.80;;;;;;;;;;5025355;28;20061;-58
2023/09/04 02:24:32;;;;;;;0.75;0.75;;;;;;;;;;5024743;28;20199;-58
2023/09/04 02:26:58;;;;;;;1.08;0.98;;;;;;;;;;5025239;28;20088;-58
2023/09/04 02:29:24;;;;;;;0.70;0.70;;;;;;;;;;5023822;28;20114;-58
2023/09/04 02:31:50;;;;;;;0.80;0.80;;;;;;;;;;5024319;28;20489;-58
2023/09/04 02:34:16;;;;;;;0.82;0.82;;;;;;;;;;5025533;28;20041;-58
2023/09/04 02:36:42;;;;;;;0.70;0.70;;;;;;;;;;5023505;28;20060;-58
2023/09/04 02:39:08;;;;;;;0.98;0.90;;;;;;;;;;5024082;28;20444;-58
2023/09/04 02:41:34;;;;;;;0.70;0.70;;;;;;;;;;5023559;28;20052;-58
2023/09/04 02:44:00;;;;;;;0.57;0.57;;;;;;;;;;5022982;28;20618;-58
2023/09/04 02:46:31;;;;;;;0.60;0.60;;;;;;;;;;5023177;28;20083;-58
2023/09/04 02:48:57;;;;;;;0.50;0.50;;;;;;;;;;5023370;28;20552;-58
2023/09/04 02:51:23;;;;;;;0.32;0.32;;;;;;;;;;5024158;28;20040;-58
2023/09/04 02:53:50;;;;;;;0.38;0.38;;;;;;;;;;5023165;28;20080;-58
2023/09/04 02:56:16;;;;;;;0.50;0.50;;;;;;;;;;5024083;28;20055;-58
2023/09/04 02:58:42;;;;;;;0.47;0.47;;;;;;;;;;5024805;28;20054;-57
2023/09/04 03:01:08;;;;;;;0.50;0.50;;;;;;;;;;5024264;28;20056;-57
2023/09/04 03:03:34;;;;;;;0.40;0.40;;;;;;;;;;5025363;28;20052;-58
2023/09/04 03:06:09;;;;;;;0.50;0.50;;;;;;;;;;5023780;28;20524;-57
2023/09/04 03:08:35;;;;;;;0.40;0.40;;;;;;;;;;5025222;28;20037;-58
2023/09/04 03:11:01;;;;;;;0.40;0.40;;;;;;;;;;5024363;28;20675;-58
2023/09/04 03:13:27;;;;;;;0.28;0.28;;;;;;;;;;5024062;28;20103;-58
2023/09/04 03:15:54;;;;;;;0.52;0.52;;;;;;;;;;5023657;28;20037;-58
2023/09/04 03:18:20;;;;;;;0.30;0.30;;;;;;;;;;5024706;28;20413;-58
2023/09/04 03:20:46;;;;;;;0.50;0.50;;;;;;;;;;5023652;28;20045;-57
2023/09/04 03:23:12;;;;;;;0.50;0.50;;;;;;;;;;5023729;28;20045;-57
2023/09/04 03:25:39;;;;;;;0.52;0.52;;;;;;;;;;5024967;28;20091;-57
2023/09/04 03:28:05;;;;;;;0.60;0.60;;;;;;;;;;5023525;28;20465;-58
2023/09/04 03:30:33;;;;;;;0.60;0.60;;;;;;;;;;5023793;28;20520;-58
2023/09/04 03:32:59;;;;;;;0.35;0.35;;;;;;;;;;5028021;28;20103;-58
2023/09/04 03:35:26;;;;;;;0.68;0.68;;;;;;;;;;5028016;28;20040;-58
2023/09/04 03:37:52;;;;;;;0.40;0.40;;;;;;;;;;5029894;28;20120;-57
2023/09/04 03:40:22;;;;;;;0.50;0.50;;;;;;;;;;5028020;28;20099;-59
2023/09/04 03:42:48;;;;;;;0.70;0.70;;;;;;;;;;5026385;28;20554;-58
2023/09/04 03:45:15;;;;;;;0.52;0.52;;;;;;;;;;5028459;28;20057;-58
2023/09/04 03:47:42;;;;;;;1.17;0.40;;;;;;;;;;5028257;28;20591;-57
2023/09/04 03:50:12;;;;;;;0.47;0.47;;;;;;;;;;5028123;28;20049;-57
2023/09/04 03:52:38;;;;;;;0.47;0.47;;;;;;;;;;5028631;28;20503;-58
2023/09/04 03:55:06;;;;;;;0.60;0.60;;;;;;;;;;5028386;28;20033;-58
2023/09/04 03:57:32;;;;;;;0.50;0.50;;;;;;;;;;5027738;28;20095;-57
2023/09/04 03:59:58;;;;;;;0.63;0.63;;;;;;;;;;5027834;28;20045;-58
2023/09/04 04:02:24;;;;;;;0.52;0.52;;;;;;;;;;5027446;28;20547;-59
2023/09/04 04:04:53;;;;;;;0.40;0.40;;;;;;;;;;5027642;28;20068;-58
2023/09/04 04:07:19;;;;;;;0.65;0.65;;;;;;;;;;5025261;28;20145;-58
2023/09/04 04:09:47;;;;;;;0.75;0.75;;;;;;;;;;5026152;28;20596;-58
2023/09/04 04:12:14;;;;;;;0.70;0.60;;;;;;;;;;5027841;28;20041;-58
2023/09/04 04:14:41;;;;;;;0.60;0.60;;;;;;;;;;5028352;28;20033;-58
2023/09/04 04:17:08;;;;;;;0.60;0.60;;;;;;;;;;5027121;28;20041;-58
2023/09/04 04:19:34;;;;;;;0.50;0.45;;;;;;;;;;5028078;28;20083;-58
2023/09/04 04:22:00;;;;;;;0.68;0.63;;;;;;;;;;5027050;28;20047;-58
2023/09/04 04:24:27;;;;;;;0.80;0.80;;;;;;;;;;5026754;28;20033;-58
2023/09/04 04:26:53;;;;;;;1.02;0.80;;;;;;;;;;5027522;28;20075;-58
2023/09/04 04:29:19;;;;;;;0.50;0.50;;;;;;;;;;5027866;28;20112;-58
2023/09/04 04:31:46;;;;;;;0.50;0.50;;;;;;;;;;5026597;28;20061;-58
2023/09/04 04:34:12;;;;;;;0.80;0.80;;;;;;;;;;5027287;28;20049;-57
2023/09/04 04:36:38;;;;;;;0.60;0.60;;;;;;;;;;5027836;28;20183;-57
2023/09/04 04:39:04;;;;;;;0.30;0.30;;;;;;;;;;5025670;28;20132;-58
2023/09/04 04:41:32;;;;;;;0.50;0.50;;;;;;;;;;5027265;28;20045;-58
2023/09/04 04:43:58;;;;;;;0.70;0.70;;;;;;;;;;5025562;28;20433;-58
2023/09/04 04:46:24;;;;;;;0.50;0.50;;;;;;;;;;5026266;28;20048;-58
2023/09/04 04:48:50;;;;;;;1.02;1.02;;;;;;;;;;5026144;28;20100;-58
2023/09/04 04:51:16;;;;;;;0.50;0.50;;;;;;;;;;5027058;28;20057;-58
2023/09/04 04:53:42;;;;;;;0.63;0.63;;;;;;;;;;5026273;28;20046;-58
2023/09/04 04:56:08;;;;;;;1.08;0.98;;;;;;;;;;5027345;28;20124;-58
2023/09/04 04:58:34;;;;;;;0.60;0.60;;;;;;;;;;5028926;28;20121;-58
2023/09/04 05:01:00;;;;;;;0.50;0.50;;;;;;;;;;5026503;28;20611;-58
2023/09/04 05:03:26;;;;;;;0.70;0.70;;;;;;;;;;5025320;28;20045;-58
2023/09/04 05:05:52;;;;;;;0.60;0.60;;;;;;;;;;5025560;28;20859;-59
2023/09/04 05:08:18;;;;;;;0.60;0.60;;;;;;;;;;5026502;28;20045;-58
2023/09/04 05:10:44;;;;;;;0.50;0.50;;;;;;;;;;5026653;28;20029;-58
2023/09/04 05:13:10;;;;;;;0.68;0.68;;;;;;;;;;5025933;28;20056;-58
2023/09/04 05:15:36;;;;;;;0.52;0.52;;;;;;;;;;5026819;28;20073;-57
2023/09/04 05:18:02;;;;;;;0.50;0.50;;;;;;;;;;5026112;28;20648;-58
2023/09/04 05:20:28;;;;;;;0.52;0.52;;;;;;;;;;5023819;28;20120;-58
2023/09/04 05:22:54;;;;;;;0.50;0.50;;;;;;;;;;5026270;28;20132;-58
2023/09/04 05:25:20;;;;;;;0.55;0.55;;;;;;;;;;5026614;28;20045;-59
2023/09/04 05:27:46;;;;;;;0.40;0.40;;;;;;;;;;5026167;28;20033;-58
2023/09/04 05:30:12;;;;;;;0.52;0.52;;;;;;;;;;5025579;28;20102;-58
2023/09/04 05:32:38;;;;;;;0.47;0.47;;;;;;;;;;5026981;28;20071;-58
2023/09/04 05:35:04;;;;;;;0.52;0.45;;;;;;;;;;5024917;28;20094;-58
2023/09/04 05:37:30;;;;;;;0.90;0.60;;;;;;;;;;5025820;28;20095;-59
2023/09/04 05:39:56;;;;;;;0.32;0.32;;;;;;;;;;5025953;28;20033;-58
2023/09/04 05:42:22;;;;;;;0.52;0.52;;;;;;;;;;5026191;28;20041;-59
2023/09/04 05:44:48;;;;;;;0.50;0.50;;;;;;;;;;5025690;28;20033;-58
2023/09/04 05:47:14;;;;;;;0.60;0.60;;;;;;;;;;5022352;28;20856;-58
2023/09/04 05:49:40;;;;;;;0.70;0.70;;;;;;;;;;5023641;28;20045;-58
2023/09/04 05:52:06;;;;;;;0.50;0.50;;;;;;;;;;5026104;28;21752;-58
2023/09/04 05:54:32;;;;;;;0.60;0.60;;;;;;;;;;5026106;28;20037;-59
2023/09/04 05:56:58;;;;;;;0.50;0.50;;;;;;;;;;5024989;28;20083;-58
2023/09/04 05:59:24;;;;;;;0.70;0.70;;;;;;;;;;5025125;28;20561;-58
2023/09/04 06:01:51;;;;;;;0.40;0.40;;;;;;;;;;5022854;28;20694;-58
2023/09/04 06:04:17;;;;;;;0.63;0.63;;;;;;;;;;5024228;28;20469;-58
2023/09/04 06:06:43;;;;;;;0.63;0.63;;;;;;;;;;5021981;28;20083;-57
2023/09/04 06:09:09;;;;;;;0.60;0.60;;;;;;;;;;5025516;28;20040;-58
2023/09/04 06:11:35;;;;;;;0.90;0.90;;;;;;;;;;5026335;28;20029;-58
2023/09/04 06:14:02;;;;;;;1.30;1.20;;;;;;;;;;5025237;28;20046;-58
2023/09/04 06:16:28;;;;;;;1.05;0.98;;;;;;;;;;5024984;28;20088;-58
2023/09/04 06:18:53;;;;;;;1.27;1.17;;;;;;;;;;5025157;28;20072;-59
2023/09/04 06:21:20;;;;;;;1.45;1.35;;;;;;;;;;5025362;28;20489;-58
2023/09/04 06:23:46;;;;;;;1.27;1.17;;;;;;;;;;5024524;28;20505;-58
2023/09/04 06:26:12;;;;;;;1.15;1.02;;;;;;;;;;5024728;28;20106;-58
2023/09/04 06:28:39;;;;;;;0.88;0.88;;;;;;;;;;5024591;28;20053;-58
2023/09/04 06:31:05;;;;;;;1.25;1.15;;;;;;;;;;5019988;28;20156;-58
2023/09/04 06:33:34;;;;;;;0.93;0.93;;;;;;;;;;5020532;28;20056;-58
2023/09/04 06:36:00;;;;;;;0.60;0.60;;;;;;;;;;5023624;28;20033;-59
2023/09/04 06:38:26;;;;;;;0.40;0.40;;;;;;;;;;5024067;28;20090;-58
2023/09/04 06:40:57;;;;;;;0.68;0.55;;;;;;;;;;5024696;28;20037;-58
2023/09/04 06:43:24;;;;;;;0.30;0.30;;;;;;;;;;5024391;28;20077;-58
2023/09/04 06:45:50;;;;;;;0.30;0.30;;;;;;;;;;5022286;28;20390;-58
2023/09/04 06:48:16;;;;;;;0.50;0.45;;;;;;;;;;5025689;28;20060;-58
2023/09/04 06:50:42;;;;;;;0.40;0.40;;;;;;;;;;5025784;28;20080;-58
2023/09/04 06:53:08;;;;;;;0.52;0.52;;;;;;;;;;5025697;28;20117;-59
2023/09/04 06:55:34;;;;;;;0.70;0.57;;;;;;;;;;5025751;28;20569;-58
2023/09/04 06:58:00;;;;;;;0.60;0.60;;;;;;;;;;5014576;28;20085;-58
2023/09/04 07:00:26;;;;;;;0.40;0.40;;;;;;;;;;5013704;28;20041;-58
2023/09/04 07:02:52;;;;;;;0.35;0.35;;;;;;;;;;5025085;28;20104;-58
2023/09/04 07:05:18;;;;;;;0.32;0.32;;;;;;;;;;5024700;28;20064;-58
2023/09/04 07:07:47;;;;;;;0.38;0.38;;;;;;;;;;5024308;28;20597;-63
2023/09/04 07:10:13;;;;;;;0.30;0.30;;;;;;;;;;5025528;28;20037;-60
2023/09/04 07:12:40;;;;;;;0.50;0.50;;;;;;;;;;5025444;28;20029;-61
2023/09/04 07:15:07;;;;;;;0.70;0.70;;;;;;;;;;5015853;28;20505;-62
2023/09/04 07:17:33;;;;;;;0.50;0.50;;;;;;;;;;5014087;28;20034;-59
2023/09/04 07:19:59;;;;;;;0.30;0.30;;;;;;;;;;5020347;28;20800;-59
2023/09/04 07:22:25;;;;;;;0.40;0.40;;;;;;;;;;5024812;28;20558;-59
2023/09/04 07:24:51;;;;;;;0.30;0.30;;;;;;;;;;5025495;28;20087;-59
2023/09/04 07:27:17;;;;;;;0.90;0.90;;;;;;;;;;5024267;28;20076;-59
2023/09/04 07:29:43;;;;;;;0.60;0.60;;;;;;;;;;5025439;28;20686;-59
2023/09/04 07:32:09;;;;;;;0.80;0.70;;;;;;;;;;5024310;28;20045;-59
2023/09/04 07:34:36;;;;;;;0.40;0.40;;;;;;;;;;5023080;28;20103;-59
2023/09/04 07:37:02;;;;;;;0.75;0.70;;;;;;;;;;5023947;28;20429;-59
2023/09/04 07:39:28;;;;;;;0.93;0.90;;;;;;;;;;5025253;28;20042;-59
2023/09/04 07:41:56;;;;;;;1.00;0.95;;;;;;;;;;5024575;28;20044;-59
2023/09/04 07:44:22;;;;;;;1.02;0.98;;;;;;;;;;5016731;28;20042;-59
2023/09/04 07:46:48;;;;;;;0.85;0.70;;;;;;;;;;5013930;28;20053;-59
2023/09/04 07:49:14;;;;;;;2.72;2.03;;;;;;;;;;5013335;28;20121;-59
2023/09/04 07:51:40;;;;;;;1.70;1.60;;;;;;;;;;5015469;28;20092;-59
2023/09/04 07:54:06;;;;;;;1.17;1.08;;;;;;;;;;5015988;28;20111;-58
2023/09/04 07:56:32;;;;;;;1.48;1.23;;;;;;;;;;5024453;28;20041;-59
2023/09/04 07:58:58;;;;;;;2.17;1.40;;;;;;;;;;5024221;28;20079;-59
2023/09/04 08:01:24;;;;;;;0.73;0.73;;;;;;;;;;5021926;28;20069;-59
2023/09/04 08:03:50;;;;;;;0.60;0.60;;;;;;;;;;5018892;28;20128;-60
2023/09/04 08:06:16;;;;;;;1.60;1.50;;;;;;;;;;5024972;28;20065;-60
2023/09/04 08:08:42;;;;;;;1.70;1.60;;;;;;;;;;5024445;28;20044;-64
2023/09/04 08:11:08;;;;;;;1.27;1.25;;;;;;;;;;5025498;28;20493;-60
2023/09/04 08:13:34;;;;;;;0.90;0.90;;;;;;;;;;5023630;28;20048;-60
2023/09/04 08:16:00;;;;;;;1.17;1.10;;;;;;;;;;5023708;28;20045;-59
2023/09/04 08:18:26;;;;;;;0.88;0.88;;;;;;;;;;5025813;28;20053;-59
2023/09/04 08:20:52;;;;;;;1.08;0.98;;;;;;;;;;5028621;28;20116;-59
2023/09/04 08:23:18;;;;;;;1.08;1.02;;;;;;;;;;5027891;28;20084;-59
2023/09/04 08:25:44;;;;;;;0.95;0.95;;;;;;;;;;5027072;28;20055;-59
2023/09/04 08:28:10;;;;;;;1.45;1.00;;;;;;;;;;5028582;28;20050;-59
2023/09/04 08:30:36;;;;;;;1.50;1.40;;;;;;;;;;5027375;28;20038;-59
2023/09/04 08:33:02;;;;;;;1.75;1.65;;;;;;;;;;5028431;28;20665;-59
2023/09/04 08:35:29;;;;;;;4.03;1.92;;;;;;;;;;5026719;28;20037;-59
2023/09/04 08:37:57;;;;;;;1.73;1.60;;;;;;;;;;5027579;28;20044;-59
2023/09/04 08:40:23;;;;;;;2.33;2.13;;;;;;;;;;5025963;28;20045;-59
2023/09/04 08:42:50;;;;;;;1.83;1.73;;;;;;;;;;5017549;28;20095;-59
2023/09/04 08:45:17;;;;;;;1.75;1.65;;;;;;;;;;5021435;28;20046;-60
2023/09/04 08:47:43;;;;;;;2.53;1.42;;;;;;;;;;5015561;28;20065;-58
2023/09/04 08:50:10;;;;;;;2.28;1.80;;;;;;;;;;5021559;28;20044;-59
2023/09/04 08:52:37;;;;;;;2.20;2.00;;;;;;;;;;5021731;28;20046;-59
2023/09/04 08:55:06;;;;;;;1.65;1.50;;;;;;;;;;5022333;28;20779;-59
2023/09/04 08:57:36;;;;;;;1.25;1.10;;;;;;;;;;5021995;28;20045;-59
2023/09/04 09:00:02;;;;;;;1.30;1.20;;;;;;;;;;5020929;28;20037;-59
2023/09/04 09:02:29;;;;;;;1.85;1.60;;;;;;;;;;5020930;28;20046;-57
2023/09/04 09:04:55;;;;;;;1.23;1.13;;;;;;;;;;5027472;28;20041;-59
2023/09/04 09:07:27;;;;;;;1.40;1.30;;;;;;;;;;5027500;28;20046;-59
2023/09/04 09:09:53;;;;;;;2.20;1.97;;;;;;;;;;5020395;28;20413;-59
2023/09/04 09:12:19;;;;;;;1.75;1.30;;;;;;;;;;5022910;28;20033;-59
2023/09/04 09:14:45;;;;;;;1.55;1.45;;;;;;;;;;5031146;28;20041;-59
2023/09/04 09:17:14;;;;;;;1.25;1.10;;;;;;;;;;5025940;28;20045;-59
2023/09/04 09:19:40;;;;;;;0.88;0.88;;;;;;;;;;5022208;28;20069;-58
2023/09/04 09:22:12;;;;;;;1.00;1.00;;;;;;;;;;5025395;28;20107;-59
2023/09/04 09:24:50;;;;;;;0.82;0.80;;;;;;;;;;5026815;28;20068;-60
2023/09/04 09:27:21;;;;;;;1.42;1.20;;;;;;;;;;5027945;28;20045;-59
2023/09/04 09:29:47;;;;;;;1.08;1.00;;;;;;;;;;5026965;28;20684;-58
2023/09/04 09:32:15;;;;;;;1.00;1.00;;;;;;;;;;5027219;28;20049;-59
2023/09/04 09:34:41;;;;;;;1.27;1.17;;;;;;;;;;5026949;28;20363;-59
2023/09/04 09:37:08;;;;;;;1.20;1.13;;;;;;;;;;5027097;28;20049;-59
2023/09/04 09:39:34;;;;;;;1.15;1.15;;;;;;;;;;5027233;28;20038;-59
2023/09/04 09:42:01;;;;;;;1.20;1.10;;;;;;;;;;5026791;28;20065;-59
2023/09/04 09:44:34;;;;;;;1.42;1.33;;;;;;;;;;5018231;28;20619;-60
2023/09/04 09:47:00;;;;;;;0.73;0.73;;;;;;;;;;5014497;28;20061;-59
2023/09/04 09:49:26;;;;;;;2.25;1.40;;;;;;;;;;5015225;28;20566;-59
2023/09/04 09:51:54;;;;;;;2.85;1.40;;;;;;;;;;5025425;28;20531;-58
2023/09/04 09:54:49;;;;;;;1.30;1.20;;;;;;;;;;5025932;28;20477;-59
2023/09/04 09:57:16;;;;;;;1.08;0.98;;;;;;;;;;5019302;28;20057;-59
2023/09/04 09:59:47;;;;;;;1.70;0.93;;;;;;;;;;5027412;28;20037;-59
2023/09/04 10:02:19;;;;;;;1.30;1.20;;;;;;;;;;5021377;28;20052;-59
2023/09/04 10:04:45;;;;;;;;;;;;;;;;;;5024085;28;20118;-59
2023/09/04 10:07:14;;;;;;;1.42;1.17;;;;;;;;;;5027111;28;20673;-59
2023/09/04 10:09:44;;;;;;;1.35;1.10;;;;;;;;;;5023561;28;20088;-59
2023/09/04 10:12:21;;;;;;;1.27;1.17;;;;;;;;;;5026908;28;20041;-60
2023/09/04 10:14:49;;;;;;;1.25;1.15;;;;;;;;;;5026724;28;20068;-59
2023/09/04 10:17:18;;;;;;;3.75;1.45;;;;;;;;;;5025829;28;20500;-59
2023/09/04 10:19:47;;;;;;;1.05;0.98;;;;;;;;;;5018125;28;20672;-59
2023/09/04 10:22:17;;;;;;;0.90;0.90;;;;;;;;;;5016797;28;20041;-59
2023/09/04 10:24:49;;;;;;;1.60;0.90;;;;;;;;;;5023275;28;20042;-58
2023/09/04 10:27:17;;;;;;;0.82;0.82;;;;;;;;;;5024637;28;20037;-59
2023/09/04 10:30:07;;;;;;;0.98;0.80;;;;;;;;;;5026114;28;20033;-59
2023/09/04 10:32:34;;;;;;;0.85;0.85;;;;;;;;;;5021836;28;20139;-59
2023/09/04 10:35:05;;;;;;;0.75;0.75;;;;;;;;;;5026071;28;20037;-58
2023/09/04 10:37:31;;;;;;;0.63;0.63;;;;;;;;;;5023694;28;20051;-59
2023/09/04 10:39:58;;;;;;;1.35;1.25;;;;;;;;;;5026221;28;20276;-59
2023/09/04 10:42:27;;;;;;;0.80;0.80;;;;;;;;;;5025497;28;20064;-59
2023/09/04 10:44:56;;;;;;;1.65;1.17;;;;;;;;;;5025179;28;20768;-59
2023/09/04 10:47:22;;;;;;;1.80;1.15;;;;;;;;;;5021063;28;20054;-59
2023/09/04 10:49:48;;;;;;;1.08;0.90;;;;;;;;;;5025169;28;20114;-59
2023/09/04 10:52:15;;;;;;;1.30;1.20;;;;;;;;;;5023282;28;20527;-59
2023/09/04 10:54:41;;;;;;;2.50;1.10;;;;;;;;;;5025850;28;20088;-59
2023/09/04 10:57:11;;;;;;;0.80;0.80;;;;;;;;;;5023501;28;20041;-60
2023/09/04 10:59:55;;;;;;;1.20;1.20;;;;;;;;;;5024947;28;20437;-60
2023/09/04 11:02:29;;;;;;;0.77;0.77;;;;;;;;;;5024489;28;20049;-59
2023/09/04 11:04:56;;;;;;;0.73;0.70;;;;;;;;;;5017167;28;20034;-59
2023/09/04 11:07:22;;;;;;;2.28;1.83;;;;;;;;;;5017718;28;20076;-59
2023/09/04 11:09:59;;;;;;;1.45;1.30;;;;;;;;;;5017275;28;20040;-59
2023/09/04 11:12:26;;;;;;;1.20;1.10;;;;;;;;;;5018400;28;20087;-59
2023/09/04 11:14:53;;;;;;;0.93;0.93;;;;;;;;;;5017235;28;20033;-60
2023/09/04 11:17:23;;;;;;;1.00;0.95;;;;;;;;;;5014044;28;20654;-59
2023/09/04 11:19:53;;;;;;;0.60;0.60;;;;;;;;;;5013591;28;20073;-59
2023/09/04 11:22:24;;;;;;;0.63;0.63;;;;;;;;;;5023944;28;20481;-59
2023/09/04 11:24:53;;;;;;;0.60;0.60;;;;;;;;;;5021514;28;20034;-60
2023/09/04 11:27:19;;;;;;;0.73;0.73;;;;;;;;;;5023327;28;20046;-60
2023/09/04 11:29:45;;;;;;;0.80;0.80;;;;;;;;;;5015975;28;20038;-59
2023/09/04 11:32:12;;;;;;;1.00;0.90;;;;;;;;;;5017718;28;20095;-59
2023/09/04 11:34:38;;;;;;;0.77;0.77;;;;;;;;;;5021441;28;20421;-59
2023/09/04 11:37:05;;;;;;;0.63;0.63;;;;;;;;;;5025023;28;20037;-60
2023/09/04 11:39:31;;;;;;;0.80;0.80;;;;;;;;;;5024296;28;20076;-59
2023/09/04 11:41:57;;;;;;;1.45;1.10;;;;;;;;;;5023149;28;20041;-59
2023/09/04 11:44:24;;;;;;;0.82;0.80;;;;;;;;;;5022041;28;20037;-60
2023/09/04 11:46:50;;;;;;;1.20;0.90;;;;;;;;;;5023914;28;20116;-59
2023/09/04 11:49:17;;;;;;;1.58;1.25;;;;;;;;;;5024667;28;20095;-59
2023/09/04 11:51:44;;;;;;;0.82;0.82;;;;;;;;;;5025332;28;20041;-59
2023/09/04 11:54:11;;;;;;;1.10;1.00;;;;;;;;;;5028192;28;20084;-60
2023/09/04 11:56:37;;;;;;;0.77;0.77;;;;;;;;;;5025794;28;20052;-60
2023/09/04 11:59:04;;;;;;;2.88;0.68;;;;;;;;;;5028461;28;20088;-60
2023/09/04 12:01:30;;;;;;;0.85;0.85;;;;;;;;;;5022842;28;20065;-60
2023/09/04 12:03:56;;;;;;;0.80;0.80;;;;;;;;;;5028308;28;20072;-59
2023/09/04 12:06:25;;;;;;;0.52;0.52;;;;;;;;;;5028489;28;20033;-60
2023/09/04 12:08:52;;;;;;;0.73;0.73;;;;;;;;;;5025788;28;20492;-60
2023/09/04 12:11:18;;;;;;;0.50;0.43;;;;;;;;;;5026615;28;20456;-60
2023/09/04 12:13:44;;;;;;;0.70;0.70;;;;;;;;;;5028905;28;20037;-60
2023/09/04 12:16:11;;;;;;;0.40;0.40;;;;;;;;;;5027256;28;20048;-59
2023/09/04 12:18:37;;;;;;;0.30;0.30;;;;;;;;;;5027555;28;20048;-60
2023/09/04 12:21:10;;;;;;;0.50;0.50;;;;;;;;;;5026258;28;20432;-60
2023/09/04 12:23:45;;;;;;;0.75;0.75;;;;;;;;;;5026862;28;20120;-60
2023/09/04 12:26:16;;;;;;;0.63;0.50;;;;;;;;;;5027426;28;20501;-60
2023/09/04 12:28:42;;;;;;;0.60;0.60;;;;;;;;;;5027284;28;20457;-60
2023/09/04 12:31:09;;;;;;;0.60;0.60;;;;;;;;;;5027427;28;20124;-60
2023/09/04 12:33:39;;;;;;;0.70;0.70;;;;;;;;;;5027157;28;20033;-60
2023/09/04 12:36:09;;;;;;;0.43;0.43;;;;;;;;;;5023804;28;20072;-60
2023/09/04 12:38:35;;;;;;;0.60;0.60;;;;;;;;;;5027782;28;20041;-60
2023/09/04 12:41:02;;;;;;;0.63;0.63;;;;;;;;;;5027296;28;20049;-60
2023/09/04 12:43:28;;;;;;;1.70;0.55;;;;;;;;;;5024622;28;20099;-59
2023/09/04 12:45:54;;;;;;;0.70;0.60;;;;;;;;;;5027308;28;20048;-60
2023/09/04 12:48:22;;;;;;;0.60;0.60;;;;;;;;;;5024543;28;20053;-60
2023/09/04 12:50:48;;;;;;;0.50;0.50;;;;;;;;;;5026826;28;20060;-60
2023/09/04 12:53:14;;;;;;;0.43;0.43;;;;;;;;;;5028652;28;20056;-60
2023/09/04 12:55:40;;;;;;;0.57;0.57;;;;;;;;;;5026811;28;20128;-60
2023/09/04 12:58:10;;;;;;;0.60;0.60;;;;;;;;;;5025588;28;20124;-60
2023/09/04 13:00:37;;;;;;;0.55;0.55;;;;;;;;;;5027060;28;20088;-61
2023/09/04 13:03:03;;;;;;;0.60;0.60;;;;;;;;;;5024593;28;20429;-60
2023/09/04 13:05:29;;;;;;;1.60;0.60;;;;;;;;;;5025244;28;20076;-60
2023/09/04 13:07:55;;;;;;;0.65;0.60;;;;;;;;;;5023965;28;20615;-60
2023/09/04 13:10:22;;;;;;;0.45;0.45;;;;;;;;;;5027268;28;20152;-60
2023/09/04 13:12:48;;;;;;;0.60;0.57;;;;;;;;;;5026400;28;20080;-61
2023/09/04 13:15:14;;;;;;;0.60;0.60;;;;;;;;;;5027040;28;20072;-59
2023/09/04 13:17:41;;;;;;;0.60;0.60;;;;;;;;;;5027219;28;20402;-60
2023/09/04 13:20:08;;;;;;;0.45;0.40;;;;;;;;;;5025678;28;20053;-60
2023/09/04 13:22:34;;;;;;;0.50;0.50;;;;;;;;;;5026729;28;20468;-60
2023/09/04 13:25:00;;;;;;;0.50;0.50;;;;;;;;;;5025843;28;20044;-60
2023/09/04 13:27:26;;;;;;;1.58;0.60;;;;;;;;;;5026558;28;20042;-60
2023/09/04 13:29:52;;;;;;;0.82;0.80;;;;;;;;;;5026734;28;20409;-60
2023/09/04 13:32:18;;;;;;;0.60;0.60;;;;;;;;;;5025849;28;20047;-59
2023/09/04 13:34:44;;;;;;;0.52;0.52;;;;;;;;;;5026853;28;20548;-60
2023/09/04 13:37:10;;;;;;;0.55;0.55;;;;;;;;;;5026415;28;20053;-60
2023/09/04 13:39:36;;;;;;;1.67;0.90;;;;;;;;;;5025312;28;20052;-60
2023/09/04 13:42:02;;;;;;;1.25;0.90;;;;;;;;;;5023709;28;20034;-60
2023/09/04 13:44:28;;;;;;;0.80;0.63;;;;;;;;;;5023075;28;20489;-60
2023/09/04 13:46:54;;;;;;;0.60;0.40;;;;;;;;;;5024109;28;20065;-59
2023/09/04 13:49:20;;;;;;;0.40;0.40;;;;;;;;;;5023853;28;20126;-59
2023/09/04 13:51:46;;;;;;;0.40;0.40;;;;;;;;;;5024904;28;20029;-60
2023/09/04 13:54:13;;;;;;;1.55;0.52;;;;;;;;;;5023867;28;20033;-60
2023/09/04 13:56:39;;;;;;;0.40;0.40;;;;;;;;;;5024970;28;20147;-59
2023/09/04 13:59:07;;;;;;;0.50;0.47;;;;;;;;;;5024777;28;20544;-61
2023/09/04 14:01:33;;;;;;;1.00;0.90;;;;;;;;;;5024866;28;20120;-60
2023/09/04 14:03:59;;;;;;;0.60;0.60;;;;;;;;;;5024731;28;20045;-59
2023/09/04 14:06:25;;;;;;;0.63;0.63;;;;;;;;;;5022794;28;20044;-59
2023/09/04 14:08:51;;;;;;;0.68;0.60;;;;;;;;;;5024006;28;20037;-59
2023/09/04 14:11:18;;;;;;;0.63;0.63;;;;;;;;;;5024030;28;20087;-59
2023/09/04 14:13:44;;;;;;;0.40;0.40;;;;;;;;;;5026038;28;20053;-60
2023/09/04 14:16:10;;;;;;;0.63;0.63;;;;;;;;;;5023535;28;20041;-60
2023/09/04 14:18:36;;;;;;;3.47;0.77;;;;;;;;;;5025550;28;20045;-60
2023/09/04 14:21:03;;;;;;;0.60;0.60;;;;;;;;;;5024074;28;20033;-60
2023/09/04 14:23:29;;;;;;;0.70;0.70;;;;;;;;;;5018425;28;20091;-60
2023/09/04 14:25:55;;;;;;;0.90;0.80;;;;;;;;;;5024941;28;20489;-59
2023/09/04 14:28:21;;;;;;;0.55;0.55;;;;;;;;;;5024497;28;20044;-59
2023/09/04 14:30:47;;;;;;;0.95;0.85;;;;;;;;;;5025993;28;20065;-60
2023/09/04 14:33:13;;;;;;;0.70;0.70;;;;;;;;;;5024324;28;20033;-59
2023/09/04 14:35:39;;;;;;;0.50;0.50;;;;;;;;;;5018776;28;20494;-60
2023/09/04 14:38:06;;;;;;;0.40;0.40;;;;;;;;;;5022204;28;20603;-59
2023/09/04 14:40:33;;;;;;;0.80;0.80;;;;;;;;;;5019479;28;20136;-59